sensor_id;sensor_type;location;lat;lon;timestamp;P1;durP1;ratioP1;P2;durP2;ratioP2
12467;SDS011;57850;52.922;6.256;2023-08-21T00:00:14;1.42;;;1.20;;
12467;SDS011;57850;52.922;6.256;2023-08-21T00:02:41;1.40;;;1.30;;
12467;SDS011;57850;52.922;6.256;2023-08-21T00:05:08;2.80;;;1.60;;
12467;SDS011;57850;52.922;6.256;2023-08-21T00:07:35;1.60;;;1.50;;
12467;SDS011;57850;52.922;6.256;2023-08-21T00:10:03;1.50;;;1.40;;
12467;SDS011;57850;52.922;6.256;2023-08-21T00:12:30;3.15;;;1.85;;
12467;SDS011;57850;52.922;6.256;2023-08-21T00:14:57;8.25;;;1.90;;
12467;SDS011;57850;52.922;6.256;2023-08-21T00:17:23;1.98;;;1.63;;
12467;SDS011;57850;52.922;6.256;2023-08-21T00:19:50;2.00;;;1.40;;
12467;SDS011;57850;52.922;6.256;2023-08-21T00:22:16;3.33;;;1.70;;
12467;SDS011;57850;52.922;6.256;2023-08-21T00:24:43;3.67;;;1.77;;
12467;SDS011;57850;52.922;6.256;2023-08-21T00:27:11;2.22;;;1.67;;
12467;SDS011;57850;52.922;6.256;2023-08-21T00:29:37;4.00;;;1.90;;
12467;SDS011;57850;52.922;6.256;2023-08-21T00:32:04;4.30;;;1.63;;
12467;SDS011;57850;52.922;6.256;2023-08-21T00:34:33;1.88;;;1.60;;
12467;SDS011;57850;52.922;6.256;2023-08-21T00:36:59;3.63;;;1.90;;
12467;SDS011;57850;52.922;6.256;2023-08-21T00:39:26;1.85;;;1.60;;
12467;SDS011;57850;52.922;6.256;2023-08-21T00:41:53;3.53;;;1.40;;
12467;SDS011;57850;52.922;6.256;2023-08-21T00:44:21;2.45;;;1.77;;
12467;SDS011;57850;52.922;6.256;2023-08-21T00:46:47;3.40;;;1.75;;
12467;SDS011;57850;52.922;6.256;2023-08-21T00:49:14;2.72;;;1.50;;
12467;SDS011;57850;52.922;6.256;2023-08-21T00:51:40;1.73;;;1.40;;
12467;SDS011;57850;52.922;6.256;2023-08-21T00:54:08;1.40;;;1.30;;
12467;SDS011;57850;52.922;6.256;2023-08-21T00:56:34;1.52;;;1.30;;
12467;SDS011;57850;52.922;6.256;2023-08-21T00:59:01;2.15;;;1.50;;
12467;SDS011;57850;52.922;6.256;2023-08-21T01:01:30;1.45;;;1.35;;
12467;SDS011;57850;52.922;6.256;2023-08-21T01:03:56;1.70;;;1.60;;
12467;SDS011;57850;52.922;6.256;2023-08-21T01:06:23;1.98;;;1.60;;
12467;SDS011;57850;52.922;6.256;2023-08-21T01:08:55;1.75;;;1.50;;
12467;SDS011;57850;52.922;6.256;2023-08-21T01:11:27;4.00;;;1.48;;
12467;SDS011;57850;52.922;6.256;2023-08-21T01:14:03;2.67;;;1.67;;
12467;SDS011;57850;52.922;6.256;2023-08-21T01:16:38;2.00;;;1.60;;
12467;SDS011;57850;52.922;6.256;2023-08-21T01:19:09;1.75;;;1.27;;
12467;SDS011;57850;52.922;6.256;2023-08-21T01:21:45;2.05;;;1.38;;
12467;SDS011;57850;52.922;6.256;2023-08-21T01:24:13;2.88;;;1.55;;
12467;SDS011;57850;52.922;6.256;2023-08-21T01:26:40;2.42;;;1.30;;
12467;SDS011;57850;52.922;6.256;2023-08-21T01:29:06;1.50;;;1.23;;
12467;SDS011;57850;52.922;6.256;2023-08-21T01:31:33;1.67;;;1.20;;
12467;SDS011;57850;52.922;6.256;2023-08-21T01:34:06;4.05;;;1.80;;
12467;SDS011;57850;52.922;6.256;2023-08-21T01:36:35;2.60;;;1.65;;
12467;SDS011;57850;52.922;6.256;2023-08-21T01:39:02;2.13;;;1.52;;
12467;SDS011;57850;52.922;6.256;2023-08-21T01:41:31;2.00;;;1.42;;
12467;SDS011;57850;52.922;6.256;2023-08-21T01:43:57;1.92;;;1.73;;
12467;SDS011;57850;52.922;6.256;2023-08-21T01:46:24;3.25;;;1.85;;
12467;SDS011;57850;52.922;6.256;2023-08-21T01:48:50;3.95;;;1.98;;
12467;SDS011;57850;52.922;6.256;2023-08-21T01:51:17;3.00;;;2.10;;
12467;SDS011;57850;52.922;6.256;2023-08-21T01:53:43;3.60;;;1.90;;
12467;SDS011;57850;52.922;6.256;2023-08-21T01:56:10;3.45;;;1.83;;
12467;SDS011;57850;52.922;6.256;2023-08-21T01:58:38;1.83;;;1.50;;
12467;SDS011;57850;52.922;6.256;2023-08-21T02:01:05;3.25;;;1.85;;
12467;SDS011;57850;52.922;6.256;2023-08-21T02:03:32;2.00;;;1.83;;
12467;SDS011;57850;52.922;6.256;2023-08-21T02:05:58;2.28;;;1.70;;
12467;SDS011;57850;52.922;6.256;2023-08-21T02:08:26;4.55;;;2.05;;
12467;SDS011;57850;52.922;6.256;2023-08-21T02:10:56;4.13;;;2.20;;
12467;SDS011;57850;52.922;6.256;2023-08-21T02:13:23;3.53;;;1.77;;
12467;SDS011;57850;52.922;6.256;2023-08-21T02:15:51;4.03;;;1.83;;
12467;SDS011;57850;52.922;6.256;2023-08-21T02:18:17;3.30;;;2.75;;
12467;SDS011;57850;52.922;6.256;2023-08-21T02:20:44;2.65;;;1.90;;
12467;SDS011;57850;52.922;6.256;2023-08-21T02:23:11;2.88;;;1.95;;
12467;SDS011;57850;52.922;6.256;2023-08-21T02:25:37;4.10;;;1.52;;
12467;SDS011;57850;52.922;6.256;2023-08-21T02:28:04;2.33;;;1.92;;
12467;SDS011;57850;52.922;6.256;2023-08-21T02:30:31;3.30;;;1.90;;
12467;SDS011;57850;52.922;6.256;2023-08-21T02:32:59;2.75;;;1.80;;
12467;SDS011;57850;52.922;6.256;2023-08-21T02:35:26;3.25;;;1.65;;
12467;SDS011;57850;52.922;6.256;2023-08-21T02:37:52;2.55;;;1.92;;
12467;SDS011;57850;52.922;6.256;2023-08-21T02:40:19;5.45;;;1.98;;
12467;SDS011;57850;52.922;6.256;2023-08-21T02:42:46;1.67;;;1.58;;
12467;SDS011;57850;52.922;6.256;2023-08-21T02:45:12;4.20;;;1.63;;
12467;SDS011;57850;52.922;6.256;2023-08-21T02:47:39;1.98;;;1.77;;
12467;SDS011;57850;52.922;6.256;2023-08-21T02:50:08;2.15;;;1.95;;
12467;SDS011;57850;52.922;6.256;2023-08-21T02:52:36;2.40;;;2.00;;
12467;SDS011;57850;52.922;6.256;2023-08-21T02:55:03;2.47;;;1.95;;
12467;SDS011;57850;52.922;6.256;2023-08-21T02:57:31;3.97;;;2.50;;
12467;SDS011;57850;52.922;6.256;2023-08-21T02:59:57;2.25;;;2.00;;
12467;SDS011;57850;52.922;6.256;2023-08-21T03:02:24;2.35;;;1.90;;
12467;SDS011;57850;52.922;6.256;2023-08-21T03:04:50;3.00;;;2.05;;
12467;SDS011;57850;52.922;6.256;2023-08-21T03:07:18;2.10;;;1.88;;
12467;SDS011;57850;52.922;6.256;2023-08-21T03:09:45;4.78;;;1.92;;
12467;SDS011;57850;52.922;6.256;2023-08-21T03:12:13;2.58;;;2.13;;
12467;SDS011;57850;52.922;6.256;2023-08-21T03:14:39;2.60;;;1.52;;
12467;SDS011;57850;52.922;6.256;2023-08-21T03:17:06;4.68;;;1.73;;
12467;SDS011;57850;52.922;6.256;2023-08-21T03:19:33;3.47;;;1.88;;
12467;SDS011;57850;52.922;6.256;2023-08-21T03:21:59;4.63;;;2.00;;
12467;SDS011;57850;52.922;6.256;2023-08-21T03:24:27;1.88;;;1.60;;
12467;SDS011;57850;52.922;6.256;2023-08-21T03:26:54;3.22;;;2.30;;
12467;SDS011;57850;52.922;6.256;2023-08-21T03:29:21;3.50;;;1.92;;
12467;SDS011;57850;52.922;6.256;2023-08-21T03:31:48;1.85;;;1.58;;
12467;SDS011;57850;52.922;6.256;2023-08-21T03:34:15;3.33;;;2.05;;
12467;SDS011;57850;52.922;6.256;2023-08-21T03:36:42;5.03;;;1.55;;
12467;SDS011;57850;52.922;6.256;2023-08-21T03:39:09;4.80;;;2.08;;
12467;SDS011;57850;52.922;6.256;2023-08-21T03:41:36;4.25;;;2.10;;
12467;SDS011;57850;52.922;6.256;2023-08-21T03:44:03;3.30;;;1.98;;
12467;SDS011;57850;52.922;6.256;2023-08-21T03:46:30;2.25;;;2.05;;
12467;SDS011;57850;52.922;6.256;2023-08-21T03:48:56;3.03;;;1.83;;
12467;SDS011;57850;52.922;6.256;2023-08-21T03:51:23;4.68;;;1.95;;
12467;SDS011;57850;52.922;6.256;2023-08-21T03:53:50;3.35;;;2.03;;
12467;SDS011;57850;52.922;6.256;2023-08-21T03:56:16;3.00;;;2.30;;
12467;SDS011;57850;52.922;6.256;2023-08-21T03:58:45;2.95;;;2.13;;
12467;SDS011;57850;52.922;6.256;2023-08-21T04:01:13;3.72;;;2.13;;
12467;SDS011;57850;52.922;6.256;2023-08-21T04:03:40;2.85;;;2.00;;
12467;SDS011;57850;52.922;6.256;2023-08-21T04:06:07;4.20;;;2.30;;
12467;SDS011;57850;52.922;6.256;2023-08-21T04:08:34;2.00;;;1.80;;
12467;SDS011;57850;52.922;6.256;2023-08-21T04:11:01;4.80;;;2.03;;
12467;SDS011;57850;52.922;6.256;2023-08-21T04:13:27;4.75;;;1.80;;
12467;SDS011;57850;52.922;6.256;2023-08-21T04:15:55;5.57;;;2.00;;
12467;SDS011;57850;52.922;6.256;2023-08-21T04:18:22;2.20;;;1.70;;
12467;SDS011;57850;52.922;6.256;2023-08-21T04:20:48;3.05;;;1.80;;
12467;SDS011;57850;52.922;6.256;2023-08-21T04:23:15;4.13;;;1.80;;
12467;SDS011;57850;52.922;6.256;2023-08-21T04:25:42;3.35;;;1.75;;
12467;SDS011;57850;52.922;6.256;2023-08-21T04:28:09;2.00;;;1.73;;
12467;SDS011;57850;52.922;6.256;2023-08-21T04:30:36;1.92;;;1.55;;
12467;SDS011;57850;52.922;6.256;2023-08-21T04:33:04;3.72;;;1.80;;
12467;SDS011;57850;52.922;6.256;2023-08-21T04:35:35;2.83;;;1.90;;
12467;SDS011;57850;52.922;6.256;2023-08-21T04:38:03;2.45;;;2.08;;
12467;SDS011;57850;52.922;6.256;2023-08-21T04:40:29;3.75;;;2.63;;
12467;SDS011;57850;52.922;6.256;2023-08-21T04:42:56;2.05;;;1.70;;
12467;SDS011;57850;52.922;6.256;2023-08-21T04:45:23;2.30;;;2.10;;
12467;SDS011;57850;52.922;6.256;2023-08-21T04:47:49;2.30;;;1.80;;
12467;SDS011;57850;52.922;6.256;2023-08-21T04:50:17;3.45;;;2.75;;
12467;SDS011;57850;52.922;6.256;2023-08-21T04:52:44;5.00;;;2.38;;
12467;SDS011;57850;52.922;6.256;2023-08-21T04:55:10;2.88;;;2.25;;
12467;SDS011;57850;52.922;6.256;2023-08-21T04:57:37;2.58;;;2.30;;
12467;SDS011;57850;52.922;6.256;2023-08-21T05:00:04;3.90;;;2.50;;
12467;SDS011;57850;52.922;6.256;2023-08-21T05:02:31;2.65;;;2.30;;
12467;SDS011;57850;52.922;6.256;2023-08-21T05:04:58;2.65;;;2.03;;
12467;SDS011;57850;52.922;6.256;2023-08-21T05:07:26;3.78;;;2.13;;
12467;SDS011;57850;52.922;6.256;2023-08-21T05:09:53;3.25;;;2.50;;
12467;SDS011;57850;52.922;6.256;2023-08-21T05:12:19;2.53;;;2.28;;
12467;SDS011;57850;52.922;6.256;2023-08-21T05:14:46;2.85;;;2.25;;
12467;SDS011;57850;52.922;6.256;2023-08-21T05:17:12;3.72;;;2.25;;
12467;SDS011;57850;52.922;6.256;2023-08-21T05:19:39;2.40;;;2.20;;
12467;SDS011;57850;52.922;6.256;2023-08-21T05:22:06;2.45;;;2.10;;
12467;SDS011;57850;52.922;6.256;2023-08-21T05:24:34;2.20;;;2.00;;
12467;SDS011;57850;52.922;6.256;2023-08-21T05:27:00;2.38;;;1.98;;
12467;SDS011;57850;52.922;6.256;2023-08-21T05:29:29;3.38;;;2.50;;
12467;SDS011;57850;52.922;6.256;2023-08-21T05:31:56;3.08;;;2.10;;
12467;SDS011;57850;52.922;6.256;2023-08-21T05:34:22;2.17;;;1.80;;
12467;SDS011;57850;52.922;6.256;2023-08-21T05:36:50;2.10;;;1.90;;
12467;SDS011;57850;52.922;6.256;2023-08-21T05:39:19;2.00;;;1.80;;
12467;SDS011;57850;52.922;6.256;2023-08-21T05:41:47;2.55;;;1.92;;
12467;SDS011;57850;52.922;6.256;2023-08-21T05:44:13;2.00;;;1.80;;
12467;SDS011;57850;52.922;6.256;2023-08-21T05:46:41;2.00;;;1.77;;
12467;SDS011;57850;52.922;6.256;2023-08-21T05:49:07;2.00;;;1.80;;
12467;SDS011;57850;52.922;6.256;2023-08-21T05:51:34;2.13;;;1.92;;
12467;SDS011;57850;52.922;6.256;2023-08-21T05:54:00;2.22;;;2.03;;
12467;SDS011;57850;52.922;6.256;2023-08-21T05:56:27;2.92;;;1.85;;
12467;SDS011;57850;52.922;6.256;2023-08-21T05:58:55;4.60;;;2.60;;
12467;SDS011;57850;52.922;6.256;2023-08-21T06:01:22;4.20;;;2.72;;
12467;SDS011;57850;52.922;6.256;2023-08-21T06:03:48;4.28;;;2.67;;
12467;SDS011;57850;52.922;6.256;2023-08-21T06:06:15;3.67;;;2.53;;
12467;SDS011;57850;52.922;6.256;2023-08-21T06:08:41;2.50;;;2.30;;
12467;SDS011;57850;52.922;6.256;2023-08-21T06:11:08;3.92;;;2.45;;
12467;SDS011;57850;52.922;6.256;2023-08-21T06:13:35;3.95;;;2.70;;
12467;SDS011;57850;52.922;6.256;2023-08-21T06:16:03;5.82;;;2.90;;
12467;SDS011;57850;52.922;6.256;2023-08-21T06:18:30;10.05;;;3.38;;
12467;SDS011;57850;52.922;6.256;2023-08-21T06:20:57;8.32;;;4.15;;
12467;SDS011;57850;52.922;6.256;2023-08-21T06:23:23;5.95;;;3.58;;
12467;SDS011;57850;52.922;6.256;2023-08-21T06:25:50;5.43;;;3.25;;
12467;SDS011;57850;52.922;6.256;2023-08-21T06:28:16;6.28;;;3.45;;
12467;SDS011;57850;52.922;6.256;2023-08-21T06:30:43;7.28;;;3.30;;
12467;SDS011;57850;52.922;6.256;2023-08-21T06:33:11;8.88;;;4.07;;
12467;SDS011;57850;52.922;6.256;2023-08-21T06:35:38;7.63;;;3.67;;
12467;SDS011;57850;52.922;6.256;2023-08-21T06:38:05;8.32;;;3.15;;
12467;SDS011;57850;52.922;6.256;2023-08-21T06:40:32;6.03;;;3.53;;
12467;SDS011;57850;52.922;6.256;2023-08-21T06:42:58;5.95;;;3.50;;
12467;SDS011;57850;52.922;6.256;2023-08-21T06:45:25;6.88;;;3.58;;
12467;SDS011;57850;52.922;6.256;2023-08-21T06:47:53;7.20;;;3.17;;
12467;SDS011;57850;52.922;6.256;2023-08-21T06:50:21;4.45;;;3.42;;
12467;SDS011;57850;52.922;6.256;2023-08-21T06:52:48;5.25;;;3.10;;
12467;SDS011;57850;52.922;6.256;2023-08-21T06:55:14;7.90;;;4.22;;
12467;SDS011;57850;52.922;6.256;2023-08-21T06:57:41;8.82;;;3.63;;
12467;SDS011;57850;52.922;6.256;2023-08-21T07:00:08;7.53;;;3.17;;
12467;SDS011;57850;52.922;6.256;2023-08-21T07:02:36;7.78;;;3.90;;
12467;SDS011;57850;52.922;6.256;2023-08-21T07:05:02;8.75;;;3.67;;
12467;SDS011;57850;52.922;6.256;2023-08-21T07:07:30;4.95;;;2.75;;
12467;SDS011;57850;52.922;6.256;2023-08-21T07:09:57;5.28;;;2.95;;
12467;SDS011;57850;52.922;6.256;2023-08-21T07:12:24;7.00;;;3.05;;
12467;SDS011;57850;52.922;6.256;2023-08-21T07:14:50;7.53;;;2.30;;
12467;SDS011;57850;52.922;6.256;2023-08-21T07:17:17;8.07;;;2.60;;
12467;SDS011;57850;52.922;6.256;2023-08-21T07:19:43;4.05;;;2.97;;
12467;SDS011;57850;52.922;6.256;2023-08-21T07:22:11;6.28;;;2.55;;
12467;SDS011;57850;52.922;6.256;2023-08-21T07:24:39;6.05;;;2.40;;
12467;SDS011;57850;52.922;6.256;2023-08-21T07:27:06;5.75;;;2.50;;
12467;SDS011;57850;52.922;6.256;2023-08-21T07:29:32;6.97;;;2.35;;
12467;SDS011;57850;52.922;6.256;2023-08-21T07:31:59;3.33;;;2.13;;
12467;SDS011;57850;52.922;6.256;2023-08-21T07:34:27;3.53;;;2.00;;
12467;SDS011;57850;52.922;6.256;2023-08-21T07:36:54;3.33;;;2.38;;
12467;SDS011;57850;52.922;6.256;2023-08-21T07:39:20;3.22;;;1.77;;
12467;SDS011;57850;52.922;6.256;2023-08-21T07:41:48;7.75;;;1.80;;
12467;SDS011;57850;52.922;6.256;2023-08-21T07:44:15;3.85;;;2.22;;
12467;SDS011;57850;52.922;6.256;2023-08-21T07:46:41;4.15;;;1.77;;
12467;SDS011;57850;52.922;6.256;2023-08-21T07:49:08;2.97;;;1.73;;
12467;SDS011;57850;52.922;6.256;2023-08-21T07:51:35;4.95;;;2.08;;
12467;SDS011;57850;52.922;6.256;2023-08-21T07:54:01;2.55;;;1.30;;
12467;SDS011;57850;52.922;6.256;2023-08-21T07:56:28;3.63;;;2.15;;
12467;SDS011;57850;52.922;6.256;2023-08-21T07:58:56;2.45;;;1.50;;
12467;SDS011;57850;52.922;6.256;2023-08-21T08:01:23;5.13;;;1.42;;
12467;SDS011;57850;52.922;6.256;2023-08-21T08:03:49;1.90;;;1.30;;
12467;SDS011;57850;52.922;6.256;2023-08-21T08:06:16;2.88;;;1.40;;
12467;SDS011;57850;52.922;6.256;2023-08-21T08:08:43;2.85;;;1.33;;
12467;SDS011;57850;52.922;6.256;2023-08-21T08:11:11;4.80;;;1.80;;
12467;SDS011;57850;52.922;6.256;2023-08-21T08:13:38;5.45;;;1.70;;
12467;SDS011;57850;52.922;6.256;2023-08-21T08:16:06;3.72;;;1.70;;
12467;SDS011;57850;52.922;6.256;2023-08-21T08:18:32;3.90;;;1.67;;
12467;SDS011;57850;52.922;6.256;2023-08-21T08:20:59;2.63;;;1.90;;
12467;SDS011;57850;52.922;6.256;2023-08-21T08:23:25;1.50;;;1.40;;
12467;SDS011;57850;52.922;6.256;2023-08-21T08:25:52;2.40;;;1.70;;
12467;SDS011;57850;52.922;6.256;2023-08-21T08:28:19;3.72;;;1.70;;
12467;SDS011;57850;52.922;6.256;2023-08-21T08:30:45;1.60;;;1.50;;
12467;SDS011;57850;52.922;6.256;2023-08-21T08:33:14;3.00;;;1.83;;
12467;SDS011;57850;52.922;6.256;2023-08-21T08:35:41;3.55;;;2.00;;
12467;SDS011;57850;52.922;6.256;2023-08-21T08:38:07;2.50;;;1.85;;
12467;SDS011;57850;52.922;6.256;2023-08-21T08:40:34;1.90;;;1.60;;
12467;SDS011;57850;52.922;6.256;2023-08-21T08:43:08;2.30;;;1.80;;
12467;SDS011;57850;52.922;6.256;2023-08-21T08:45:36;4.13;;;1.73;;
12467;SDS011;57850;52.922;6.256;2023-08-21T08:48:04;2.95;;;1.60;;
12467;SDS011;57850;52.922;6.256;2023-08-21T08:50:33;1.63;;;1.52;;
12467;SDS011;57850;52.922;6.256;2023-08-21T08:53:00;4.30;;;1.42;;
12467;SDS011;57850;52.922;6.256;2023-08-21T08:55:27;3.00;;;1.85;;
12467;SDS011;57850;52.922;6.256;2023-08-21T08:57:55;3.42;;;1.58;;
12467;SDS011;57850;52.922;6.256;2023-08-21T09:00:22;3.30;;;2.10;;
12467;SDS011;57850;52.922;6.256;2023-08-21T09:02:48;3.60;;;1.67;;
12467;SDS011;57850;52.922;6.256;2023-08-21T09:05:15;2.72;;;1.70;;
12467;SDS011;57850;52.922;6.256;2023-08-21T09:07:43;2.13;;;1.60;;
12467;SDS011;57850;52.922;6.256;2023-08-21T09:10:13;1.95;;;1.63;;
12467;SDS011;57850;52.922;6.256;2023-08-21T09:12:44;2.78;;;1.88;;
12467;SDS011;57850;52.922;6.256;2023-08-21T09:15:11;3.80;;;1.60;;
12467;SDS011;57850;52.922;6.256;2023-08-21T09:17:37;2.35;;;1.50;;
12467;SDS011;57850;52.922;6.256;2023-08-21T09:20:04;3.25;;;2.10;;
12467;SDS011;57850;52.922;6.256;2023-08-21T09:22:32;4.32;;;1.50;;
12467;SDS011;57850;52.922;6.256;2023-08-21T09:25:01;3.15;;;1.90;;
12467;SDS011;57850;52.922;6.256;2023-08-21T09:27:31;2.85;;;1.80;;
12467;SDS011;57850;52.922;6.256;2023-08-21T09:29:58;4.90;;;2.35;;
12467;SDS011;57850;52.922;6.256;2023-08-21T09:32:25;3.90;;;2.28;;
12467;SDS011;57850;52.922;6.256;2023-08-21T09:34:52;3.65;;;2.42;;
12467;SDS011;57850;52.922;6.256;2023-08-21T09:37:18;3.40;;;2.20;;
12467;SDS011;57850;52.922;6.256;2023-08-21T09:39:45;3.00;;;2.50;;
12467;SDS011;57850;52.922;6.256;2023-08-21T09:42:13;4.25;;;2.10;;
12467;SDS011;57850;52.922;6.256;2023-08-21T09:44:41;5.07;;;2.10;;
12467;SDS011;57850;52.922;6.256;2023-08-21T09:47:08;4.43;;;2.25;;
12467;SDS011;57850;52.922;6.256;2023-08-21T09:49:36;4.03;;;1.80;;
12467;SDS011;57850;52.922;6.256;2023-08-21T09:52:04;4.25;;;2.03;;
12467;SDS011;57850;52.922;6.256;2023-08-21T09:54:32;2.42;;;1.83;;
12467;SDS011;57850;52.922;6.256;2023-08-21T09:57:00;3.33;;;1.85;;
12467;SDS011;57850;52.922;6.256;2023-08-21T09:59:30;3.95;;;2.15;;
12467;SDS011;57850;52.922;6.256;2023-08-21T10:01:58;4.30;;;2.15;;
12467;SDS011;57850;52.922;6.256;2023-08-21T10:04:25;3.95;;;2.28;;
12467;SDS011;57850;52.922;6.256;2023-08-21T10:06:55;2.40;;;1.70;;
12467;SDS011;57850;52.922;6.256;2023-08-21T10:09:23;3.08;;;2.30;;
12467;SDS011;57850;52.922;6.256;2023-08-21T10:11:51;2.63;;;1.92;;
12467;SDS011;57850;52.922;6.256;2023-08-21T10:14:18;3.63;;;2.15;;
12467;SDS011;57850;52.922;6.256;2023-08-21T10:16:48;2.75;;;2.08;;
12467;SDS011;57850;52.922;6.256;2023-08-21T10:19:16;3.45;;;1.75;;
12467;SDS011;57850;52.922;6.256;2023-08-21T10:21:45;4.60;;;2.05;;
12467;SDS011;57850;52.922;6.256;2023-08-21T10:24:13;2.90;;;2.08;;
12467;SDS011;57850;52.922;6.256;2023-08-21T10:26:52;4.97;;;1.92;;
12467;SDS011;57850;52.922;6.256;2023-08-21T10:29:19;1.80;;;1.70;;
12467;SDS011;57850;52.922;6.256;2023-08-21T10:31:45;3.33;;;2.00;;
12467;SDS011;57850;52.922;6.256;2023-08-21T10:34:13;4.95;;;2.05;;
12467;SDS011;57850;52.922;6.256;2023-08-21T10:37:02;3.85;;;1.88;;
12467;SDS011;57850;52.922;6.256;2023-08-21T10:39:31;3.53;;;2.30;;
12467;SDS011;57850;52.922;6.256;2023-08-21T10:42:00;2.30;;;2.00;;
12467;SDS011;57850;52.922;6.256;2023-08-21T10:44:34;4.88;;;2.15;;
12467;SDS011;57850;52.922;6.256;2023-08-21T10:47:16;4.65;;;2.58;;
12467;SDS011;57850;52.922;6.256;2023-08-21T10:49:45;3.15;;;1.75;;
12467;SDS011;57850;52.922;6.256;2023-08-21T10:52:12;3.42;;;1.92;;
12467;SDS011;57850;52.922;6.256;2023-08-21T10:54:44;2.92;;;2.08;;
12467;SDS011;57850;52.922;6.256;2023-08-21T10:57:12;4.75;;;2.22;;
12467;SDS011;57850;52.922;6.256;2023-08-21T10:59:39;3.97;;;2.00;;
12467;SDS011;57850;52.922;6.256;2023-08-21T11:02:15;5.45;;;2.83;;
12467;SDS011;57850;52.922;6.256;2023-08-21T11:04:42;4.10;;;1.73;;
12467;SDS011;57850;52.922;6.256;2023-08-21T11:07:10;4.57;;;2.50;;
12467;SDS011;57850;52.922;6.256;2023-08-21T11:09:38;4.13;;;2.10;;
12467;SDS011;57850;52.922;6.256;2023-08-21T11:12:06;3.63;;;2.35;;
12467;SDS011;57850;52.922;6.256;2023-08-21T11:14:34;5.30;;;2.42;;
12467;SDS011;57850;52.922;6.256;2023-08-21T11:17:01;5.25;;;2.17;;
12467;SDS011;57850;52.922;6.256;2023-08-21T11:19:29;4.05;;;2.45;;
12467;SDS011;57850;52.922;6.256;2023-08-21T11:21:56;3.85;;;2.28;;
12467;SDS011;57850;52.922;6.256;2023-08-21T11:24:30;3.83;;;2.05;;
12467;SDS011;57850;52.922;6.256;2023-08-21T11:26:57;4.53;;;2.40;;
12467;SDS011;57850;52.922;6.256;2023-08-21T11:29:24;5.50;;;2.40;;
12467;SDS011;57850;52.922;6.256;2023-08-21T11:31:51;3.95;;;2.60;;
12467;SDS011;57850;52.922;6.256;2023-08-21T11:34:18;4.22;;;2.38;;
12467;SDS011;57850;52.922;6.256;2023-08-21T11:36:45;3.67;;;2.22;;
12467;SDS011;57850;52.922;6.256;2023-08-21T11:39:12;4.38;;;2.70;;
12467;SDS011;57850;52.922;6.256;2023-08-21T11:44:22;5.15;;;2.65;;
12467;SDS011;57850;52.922;6.256;2023-08-21T11:46:50;5.80;;;2.70;;
12467;SDS011;57850;52.922;6.256;2023-08-21T11:49:17;4.32;;;2.17;;
12467;SDS011;57850;52.922;6.256;2023-08-21T11:51:44;4.57;;;2.30;;
12467;SDS011;57850;52.922;6.256;2023-08-21T11:54:11;3.40;;;2.22;;
12467;SDS011;57850;52.922;6.256;2023-08-21T11:56:38;4.68;;;2.58;;
12467;SDS011;57850;52.922;6.256;2023-08-21T11:59:07;3.05;;;2.25;;
12467;SDS011;57850;52.922;6.256;2023-08-21T12:01:34;4.82;;;2.47;;
12467;SDS011;57850;52.922;6.256;2023-08-21T12:04:01;2.33;;;2.03;;
12467;SDS011;57850;52.922;6.256;2023-08-21T12:06:43;2.67;;;1.83;;
12467;SDS011;57850;52.922;6.256;2023-08-21T12:09:10;4.35;;;2.33;;
12467;SDS011;57850;52.922;6.256;2023-08-21T12:11:37;3.92;;;1.60;;
12467;SDS011;57850;52.922;6.256;2023-08-21T12:14:04;2.60;;;2.05;;
12467;SDS011;57850;52.922;6.256;2023-08-21T12:16:32;6.50;;;2.53;;
12467;SDS011;57850;52.922;6.256;2023-08-21T12:18:59;3.38;;;2.35;;
12467;SDS011;57850;52.922;6.256;2023-08-21T12:21:25;2.90;;;2.08;;
12467;SDS011;57850;52.922;6.256;2023-08-21T12:23:52;3.72;;;1.90;;
12467;SDS011;57850;52.922;6.256;2023-08-21T12:26:18;2.13;;;1.90;;
12467;SDS011;57850;52.922;6.256;2023-08-21T12:28:46;3.35;;;2.08;;
12467;SDS011;57850;52.922;6.256;2023-08-21T12:31:13;3.30;;;2.08;;
12467;SDS011;57850;52.922;6.256;2023-08-21T12:33:41;5.80;;;2.25;;
12467;SDS011;57850;52.922;6.256;2023-08-21T12:36:08;3.38;;;1.90;;
12467;SDS011;57850;52.922;6.256;2023-08-21T12:38:34;2.97;;;1.85;;
12467;SDS011;57850;52.922;6.256;2023-08-21T12:41:01;2.63;;;1.75;;
12467;SDS011;57850;52.922;6.256;2023-08-21T12:43:28;2.10;;;1.90;;
12467;SDS011;57850;52.922;6.256;2023-08-21T12:45:56;2.47;;;1.65;;
12467;SDS011;57850;52.922;6.256;2023-08-21T12:48:22;2.88;;;2.08;;
12467;SDS011;57850;52.922;6.256;2023-08-21T12:50:50;2.97;;;2.00;;
12467;SDS011;57850;52.922;6.256;2023-08-21T12:53:18;2.20;;;2.00;;
12467;SDS011;57850;52.922;6.256;2023-08-21T12:55:45;5.75;;;2.40;;
12467;SDS011;57850;52.922;6.256;2023-08-21T12:58:11;2.33;;;2.10;;
12467;SDS011;57850;52.922;6.256;2023-08-21T13:00:38;2.85;;;2.03;;
12467;SDS011;57850;52.922;6.256;2023-08-21T13:03:05;2.38;;;1.80;;
12467;SDS011;57850;52.922;6.256;2023-08-21T13:05:33;3.05;;;1.90;;
12467;SDS011;57850;52.922;6.256;2023-08-21T13:08:01;2.38;;;1.38;;
12467;SDS011;57850;52.922;6.256;2023-08-21T13:10:28;3.00;;;1.65;;
12467;SDS011;57850;52.922;6.256;2023-08-21T13:12:54;1.77;;;1.60;;
12467;SDS011;57850;52.922;6.256;2023-08-21T13:15:21;3.78;;;1.90;;
12467;SDS011;57850;52.922;6.256;2023-08-21T13:17:47;2.47;;;1.77;;
12467;SDS011;57850;52.922;6.256;2023-08-21T13:20:14;2.78;;;1.83;;
12467;SDS011;57850;52.922;6.256;2023-08-21T13:22:44;3.47;;;1.73;;
12467;SDS011;57850;52.922;6.256;2023-08-21T13:25:13;2.22;;;2.00;;
12467;SDS011;57850;52.922;6.256;2023-08-21T13:27:40;2.70;;;1.75;;
12467;SDS011;57850;52.922;6.256;2023-08-21T13:30:07;2.88;;;1.60;;
12467;SDS011;57850;52.922;6.256;2023-08-21T13:32:35;1.65;;;1.42;;
12467;SDS011;57850;52.922;6.256;2023-08-21T13:35:04;1.52;;;1.38;;
12467;SDS011;57850;52.922;6.256;2023-08-21T13:37:33;1.48;;;1.38;;
12467;SDS011;57850;52.922;6.256;2023-08-21T13:40:00;2.53;;;1.65;;
12467;SDS011;57850;52.922;6.256;2023-08-21T13:42:35;1.80;;;1.40;;
12467;SDS011;57850;52.922;6.256;2023-08-21T13:45:06;1.80;;;1.70;;
12467;SDS011;57850;52.922;6.256;2023-08-21T13:47:34;6.93;;;1.88;;
12467;SDS011;57850;52.922;6.256;2023-08-21T13:50:01;3.45;;;1.63;;
12467;SDS011;57850;52.922;6.256;2023-08-21T13:52:27;2.15;;;1.33;;
12467;SDS011;57850;52.922;6.256;2023-08-21T13:54:54;1.67;;;1.58;;
12467;SDS011;57850;52.922;6.256;2023-08-21T13:57:20;2.05;;;1.38;;
12467;SDS011;57850;52.922;6.256;2023-08-21T13:59:48;1.88;;;1.63;;
12467;SDS011;57850;52.922;6.256;2023-08-21T14:02:15;3.20;;;1.65;;
12467;SDS011;57850;52.922;6.256;2023-08-21T14:04:43;2.92;;;1.70;;
12467;SDS011;57850;52.922;6.256;2023-08-21T14:07:10;1.77;;;1.67;;
12467;SDS011;57850;52.922;6.256;2023-08-21T14:09:37;3.83;;;1.75;;
12467;SDS011;57850;52.922;6.256;2023-08-21T14:12:04;1.98;;;1.30;;
12467;SDS011;57850;52.922;6.256;2023-08-21T14:14:32;1.67;;;1.15;;
12467;SDS011;57850;52.922;6.256;2023-08-21T14:17:00;2.22;;;1.42;;
12467;SDS011;57850;52.922;6.256;2023-08-21T14:19:26;1.40;;;1.30;;
12467;SDS011;57850;52.922;6.256;2023-08-21T14:21:53;2.00;;;1.50;;
12467;SDS011;57850;52.922;6.256;2023-08-21T14:24:20;1.50;;;1.30;;
12467;SDS011;57850;52.922;6.256;2023-08-21T14:26:46;2.58;;;1.38;;
12467;SDS011;57850;52.922;6.256;2023-08-21T14:29:13;2.95;;;1.50;;
12467;SDS011;57850;52.922;6.256;2023-08-21T14:31:40;3.78;;;1.63;;
12467;SDS011;57850;52.922;6.256;2023-08-21T14:34:08;1.55;;;1.10;;
12467;SDS011;57850;52.922;6.256;2023-08-21T14:36:35;1.30;;;1.20;;
12467;SDS011;57850;52.922;6.256;2023-08-21T14:39:01;3.65;;;1.50;;
12467;SDS011;57850;52.922;6.256;2023-08-21T14:41:29;1.88;;;1.35;;
12467;SDS011;57850;52.922;6.256;2023-08-21T14:43:55;3.47;;;1.35;;
12467;SDS011;57850;52.922;6.256;2023-08-21T14:46:22;2.20;;;1.50;;
12467;SDS011;57850;52.922;6.256;2023-08-21T14:48:48;1.30;;;1.20;;
12467;SDS011;57850;52.922;6.256;2023-08-21T14:51:16;2.08;;;1.35;;